createdAt,value
2023-12-19T00:00:37.921Z,544.00
2023-12-19T00:01:37.936Z,544.00
2023-12-19T00:02:37.932Z,542.00
2023-12-19T00:03:38.024Z,543.00
2023-12-19T00:04:37.961Z,543.00
2023-12-19T00:05:38.014Z,544.00
2023-12-19T00:06:38.042Z,545.00
2023-12-19T00:07:38.075Z,546.00
2023-12-19T00:08:38.139Z,545.00
2023-12-19T00:09:38.266Z,546.00
2023-12-19T00:10:38.294Z,545.00
2023-12-19T00:11:38.372Z,545.00
2023-12-19T00:12:38.403Z,545.00
2023-12-19T00:13:38.376Z,544.00
2023-12-19T00:14:38.390Z,544.00
2023-12-19T00:15:38.455Z,544.00
2023-12-19T00:16:38.454Z,546.00
2023-12-19T00:17:38.508Z,546.00
2023-12-19T00:18:38.570Z,544.00
2023-12-19T00:19:38.545Z,542.00
2023-12-19T00:20:38.488Z,541.00
2023-12-19T00:21:38.551Z,543.00
2023-12-19T00:22:38.537Z,542.00
2023-12-19T00:23:38.596Z,545.00
2023-12-19T00:24:38.720Z,546.00
2023-12-19T00:25:38.729Z,541.00
2023-12-19T00:26:38.802Z,540.00
2023-12-19T00:27:38.899Z,540.00
2023-12-19T00:28:38.948Z,539.00
2023-12-19T00:29:39.009Z,540.00
2023-12-19T00:30:39.139Z,541.00
2023-12-19T00:31:39.244Z,540.00
2023-12-19T00:32:39.250Z,539.00
2023-12-19T00:33:39.390Z,541.00
2023-12-19T00:34:39.435Z,540.00
2023-12-19T00:35:39.436Z,539.00
2023-12-19T00:36:39.528Z,538.00
2023-12-19T00:37:39.577Z,539.00
2023-12-19T00:38:39.634Z,539.00
2023-12-19T00:39:39.744Z,541.00
2023-12-19T00:40:39.790Z,540.00
2023-12-19T00:41:39.875Z,537.00
2023-12-19T00:42:40.004Z,536.00
2023-12-19T00:43:40.001Z,533.00
2023-12-19T00:44:40.009Z,531.00
2023-12-19T00:45:49.299Z,524.00
2023-12-19T00:46:49.261Z,528.00
2023-12-19T00:47:49.269Z,531.00
2023-12-19T00:48:49.338Z,531.00
2023-12-19T00:49:49.364Z,533.00
2023-12-19T00:50:49.186Z,533.00
2023-12-19T00:51:49.190Z,534.00
2023-12-19T00:52:49.163Z,534.00
2023-12-19T00:53:49.152Z,535.00
2023-12-19T00:54:49.173Z,537.00
2023-12-19T00:55:49.124Z,537.00
2023-12-19T00:56:49.104Z,537.00
2023-12-19T00:57:49.127Z,536.00
2023-12-19T00:58:49.088Z,535.00
2023-12-19T00:59:49.066Z,535.00
2023-12-19T01:00:49.272Z,533.00
2023-12-19T01:01:49.072Z,531.00
2023-12-19T01:02:49.011Z,531.00
2023-12-19T01:03:49.065Z,533.00
2023-12-19T01:04:49.099Z,534.00
2023-12-19T01:05:49.074Z,533.00
2023-12-19T01:06:48.995Z,531.00
2023-12-19T01:07:48.922Z,532.00
2023-12-19T01:08:49.006Z,531.00
2023-12-19T01:09:49.040Z,532.00
2023-12-19T01:10:48.894Z,532.00
2023-12-19T01:11:48.889Z,532.00
2023-12-19T01:12:48.977Z,534.00
2023-12-19T01:13:48.856Z,532.00
2023-12-19T01:14:48.816Z,529.00
2023-12-19T01:15:48.857Z,528.00
2023-12-19T01:16:48.781Z,528.00
2023-12-19T01:17:48.808Z,525.00
2023-12-19T01:18:48.807Z,524.00
2023-12-19T01:19:48.933Z,524.00
2023-12-19T01:20:48.717Z,527.00
2023-12-19T01:21:48.911Z,527.00
2023-12-19T01:22:48.686Z,525.00
2023-12-19T01:23:48.681Z,525.00
2023-12-19T01:24:48.691Z,527.00
2023-12-19T01:25:48.644Z,526.00
2023-12-19T01:26:48.627Z,524.00
2023-12-19T01:27:48.630Z,527.00
2023-12-19T01:28:48.593Z,529.00
2023-12-19T01:29:48.599Z,531.00
2023-12-19T01:30:48.645Z,530.00
2023-12-19T01:31:48.569Z,531.00
2023-12-19T01:32:48.956Z,529.00
2023-12-19T01:33:48.717Z,530.00
2023-12-19T01:34:48.514Z,530.00
2023-12-19T01:35:48.489Z,528.00
2023-12-19T01:36:56.784Z,526.00
2023-12-19T01:37:49.463Z,525.00
2023-12-19T01:38:48.438Z,525.00
2023-12-19T01:39:48.453Z,524.00
2023-12-19T01:40:48.390Z,523.00
2023-12-19T01:41:48.393Z,523.00
2023-12-19T01:42:48.387Z,524.00
2023-12-19T01:43:48.353Z,526.00
2023-12-19T01:44:48.343Z,528.00
2023-12-19T01:45:48.402Z,529.00
2023-12-19T01:46:48.342Z,528.00
2023-12-19T01:47:48.315Z,527.00
2023-12-19T01:48:48.332Z,525.00
2023-12-19T01:49:48.350Z,526.00
2023-12-19T01:50:48.239Z,525.00
2023-12-19T01:51:48.269Z,525.00
2023-12-19T01:52:48.211Z,524.00
2023-12-19T01:53:48.202Z,523.00
2023-12-19T01:54:48.180Z,525.00
2023-12-19T01:55:48.159Z,525.00
2023-12-19T01:56:48.147Z,524.00
2023-12-19T01:57:48.197Z,523.00
2023-12-19T01:58:48.132Z,522.00
2023-12-19T01:59:48.137Z,522.00
2023-12-19T02:00:48.220Z,521.00
2023-12-19T02:01:48.218Z,519.00
2023-12-19T02:02:48.422Z,516.00
2023-12-19T02:03:48.225Z,518.00
2023-12-19T02:04:48.179Z,521.00
2023-12-19T02:05:48.192Z,518.00
2023-12-19T02:06:48.161Z,518.00
2023-12-19T02:07:48.061Z,519.00
2023-12-19T02:08:48.043Z,520.00
2023-12-19T02:09:48.080Z,519.00
2023-12-19T02:10:48.025Z,520.00
2023-12-19T02:11:48.022Z,519.00
2023-12-19T02:12:48.404Z,519.00
2023-12-19T02:13:47.976Z,518.00
2023-12-19T02:14:47.988Z,520.00
2023-12-19T02:15:47.975Z,523.00
2023-12-19T02:16:47.969Z,522.00
2023-12-19T02:17:47.957Z,522.00
2023-12-19T02:18:47.979Z,523.00
2023-12-19T02:19:47.956Z,521.00
2023-12-19T02:20:47.881Z,519.00
2023-12-19T02:21:47.926Z,519.00
2023-12-19T02:22:47.844Z,520.00
2023-12-19T02:23:47.829Z,519.00
2023-12-19T02:24:47.863Z,518.00
2023-12-19T02:25:47.809Z,518.00
2023-12-19T02:26:47.826Z,516.00
2023-12-19T02:27:47.829Z,514.00
2023-12-19T02:28:47.781Z,512.00
2023-12-19T02:29:47.775Z,514.00
2023-12-19T02:30:47.843Z,516.00
2023-12-19T02:31:47.791Z,517.00
2023-12-19T02:32:47.798Z,516.00
2023-12-19T02:33:47.722Z,515.00
2023-12-19T02:34:47.736Z,514.00
2023-12-19T02:35:47.702Z,514.00
2023-12-19T02:36:47.707Z,516.00
2023-12-19T02:37:47.665Z,516.00
2023-12-19T02:38:47.686Z,517.00
2023-12-19T02:39:47.682Z,516.00
2023-12-19T02:40:47.652Z,514.00
2023-12-19T02:41:47.620Z,511.00
2023-12-19T02:42:48.026Z,512.00
2023-12-19T02:43:54.206Z,514.00
2023-12-19T02:44:48.576Z,517.00
2023-12-19T02:45:47.644Z,516.00
2023-12-19T02:46:47.557Z,516.00
2023-12-19T02:47:47.634Z,518.00
2023-12-19T02:48:47.666Z,517.00
2023-12-19T02:49:47.596Z,519.00
2023-12-19T02:50:47.488Z,519.00
2023-12-19T02:51:47.527Z,518.00
2023-12-19T02:52:47.476Z,520.00
2023-12-19T02:53:47.436Z,521.00
2023-12-19T02:54:47.451Z,518.00
2023-12-19T02:55:47.402Z,517.00
2023-12-19T02:56:47.399Z,518.00
2023-12-19T02:57:47.424Z,520.00
2023-12-19T02:58:47.352Z,519.00
2023-12-19T02:59:47.337Z,520.00
2023-12-19T03:00:47.464Z,519.00
2023-12-19T03:01:47.406Z,515.00
2023-12-19T03:02:47.478Z,512.00
2023-12-19T03:03:47.419Z,508.00
2023-12-19T03:04:47.337Z,507.00
2023-12-19T03:05:47.261Z,505.00
2023-12-19T03:06:47.260Z,503.00
2023-12-19T03:07:47.207Z,503.00
2023-12-19T03:08:47.211Z,504.00
2023-12-19T03:09:47.214Z,504.00
2023-12-19T03:10:47.170Z,505.00
2023-12-19T03:11:47.155Z,509.00
2023-12-19T03:12:47.473Z,511.00
2023-12-19T03:13:47.125Z,514.00
2023-12-19T03:14:47.106Z,513.00
2023-12-19T03:15:47.096Z,511.00
2023-12-19T03:16:47.081Z,511.00
2023-12-19T03:17:47.124Z,512.00
2023-12-19T03:18:47.111Z,510.00
2023-12-19T03:19:47.178Z,510.00
2023-12-19T03:20:47.053Z,507.00
2023-12-19T03:21:47.074Z,505.00
2023-12-19T03:22:47.053Z,505.00
2023-12-19T03:23:46.984Z,504.00
2023-12-19T03:24:47.008Z,505.00
2023-12-19T03:25:46.962Z,505.00
2023-12-19T03:26:46.956Z,505.00
2023-12-19T03:27:47.064Z,504.00
2023-12-19T03:28:46.942Z,504.00
2023-12-19T03:29:46.912Z,505.00
2023-12-19T03:30:46.964Z,505.00
2023-12-19T03:31:46.957Z,505.00
2023-12-19T03:32:47.217Z,506.00
2023-12-19T03:33:46.964Z,507.00
2023-12-19T03:34:46.940Z,509.00
2023-12-19T03:35:46.883Z,508.00
2023-12-19T03:36:46.939Z,508.00
2023-12-19T03:37:46.838Z,509.00
2023-12-19T03:38:46.829Z,505.00
2023-12-19T03:39:46.864Z,505.00
2023-12-19T03:40:46.813Z,502.00
2023-12-19T03:42:10.091Z,501.00
2023-12-19T03:42:48.173Z,501.00
2023-12-19T03:43:46.768Z,500.00
2023-12-19T03:44:46.752Z,500.00
2023-12-19T03:45:46.761Z,501.00
2023-12-19T03:46:46.722Z,502.00
2023-12-19T03:47:46.773Z,501.00
2023-12-19T03:48:46.747Z,502.00
2023-12-19T03:49:46.783Z,501.00
2023-12-19T03:50:46.658Z,501.00
2023-12-19T03:51:46.663Z,502.00
2023-12-19T03:52:46.786Z,503.00
2023-12-19T03:53:46.615Z,505.00
2023-12-19T03:54:46.669Z,504.00
2023-12-19T03:55:46.584Z,502.00
2023-12-19T03:56:46.591Z,500.00
2023-12-19T03:57:46.589Z,501.00
2023-12-19T03:58:46.551Z,502.00
2023-12-19T03:59:46.523Z,503.00
2023-12-19T04:00:46.555Z,505.00
2023-12-19T04:01:46.571Z,502.00
2023-12-19T04:02:46.682Z,500.00
2023-12-19T04:03:46.498Z,499.00
2023-12-19T04:04:46.486Z,496.00
2023-12-19T04:05:46.445Z,496.00
2023-12-19T04:06:46.474Z,495.00
2023-12-19T04:07:46.415Z,495.00
2023-12-19T04:08:46.416Z,497.00
2023-12-19T04:09:46.404Z,497.00
2023-12-19T04:10:46.366Z,498.00
2023-12-19T04:11:46.394Z,499.00
2023-12-19T04:12:46.465Z,497.00
2023-12-19T04:13:46.348Z,496.00
2023-12-19T04:14:46.313Z,495.00
2023-12-19T04:15:46.349Z,496.00
2023-12-19T04:16:46.285Z,494.00
2023-12-19T04:17:46.333Z,496.00
2023-12-19T04:18:46.365Z,496.00
2023-12-19T04:19:46.286Z,498.00
2023-12-19T04:20:46.264Z,498.00
2023-12-19T04:21:46.267Z,498.00
2023-12-19T04:22:46.449Z,495.00
2023-12-19T04:23:46.190Z,496.00
2023-12-19T04:24:46.224Z,497.00
2023-12-19T04:25:46.152Z,498.00
2023-12-19T04:26:46.150Z,496.00
2023-12-19T04:27:46.154Z,496.00
2023-12-19T04:28:46.126Z,495.00
2023-12-19T04:29:46.092Z,494.00
2023-12-19T04:30:46.147Z,494.00
2023-12-19T04:31:46.177Z,494.00
2023-12-19T04:32:46.437Z,495.00
2023-12-19T04:33:55.292Z,490.00
2023-12-19T04:34:53.955Z,495.00
2023-12-19T04:35:53.862Z,493.00
2023-12-19T04:36:53.865Z,495.00
2023-12-19T04:37:53.878Z,494.00
2023-12-19T04:38:53.875Z,496.00
2023-12-19T04:39:53.864Z,498.00
2023-12-19T04:40:53.888Z,499.00
2023-12-19T04:41:53.892Z,499.00
2023-12-19T04:42:53.915Z,498.00
2023-12-19T04:43:53.871Z,499.00
2023-12-19T04:44:53.868Z,497.00
2023-12-19T04:45:53.896Z,496.00
2023-12-19T04:46:53.862Z,494.00
2023-12-19T04:47:53.913Z,492.00
2023-12-19T04:48:53.940Z,490.00
2023-12-19T04:49:53.921Z,490.00
2023-12-19T04:50:53.933Z,490.00
2023-12-19T04:51:53.962Z,490.00
2023-12-19T04:52:53.938Z,489.00
2023-12-19T04:53:53.946Z,491.00
2023-12-19T04:54:53.986Z,492.00
2023-12-19T04:55:53.954Z,493.00
2023-12-19T04:56:53.979Z,491.00
2023-12-19T04:57:53.991Z,491.00
2023-12-19T04:58:53.991Z,492.00
2023-12-19T04:59:53.993Z,492.00
2023-12-19T05:00:54.124Z,492.00
2023-12-19T05:01:54.062Z,492.00
2023-12-19T05:02:54.064Z,492.00
2023-12-19T05:03:54.068Z,492.00
2023-12-19T05:04:54.080Z,494.00
2023-12-19T05:05:54.100Z,495.00
2023-12-19T05:06:54.113Z,496.00
2023-12-19T05:07:54.126Z,494.00
2023-12-19T05:08:54.138Z,496.00
2023-12-19T05:09:54.204Z,495.00
2023-12-19T05:10:54.130Z,493.00
2023-12-19T05:11:54.133Z,493.00
2023-12-19T05:12:54.166Z,494.00
2023-12-19T05:13:54.166Z,494.00
2023-12-19T05:14:54.192Z,493.00
2023-12-19T05:15:54.245Z,494.00
2023-12-19T05:16:54.219Z,493.00
2023-12-19T05:17:54.259Z,493.00
2023-12-19T05:18:54.269Z,494.00
2023-12-19T05:19:58.519Z,493.00
2023-12-19T05:20:54.250Z,493.00
2023-12-19T05:21:54.282Z,496.00
2023-12-19T05:22:54.238Z,498.00
2023-12-19T05:23:54.196Z,497.00
2023-12-19T05:24:54.213Z,496.00
2023-12-19T05:25:54.179Z,496.00
2023-12-19T05:26:54.193Z,495.00
2023-12-19T05:27:54.225Z,493.00
2023-12-19T05:28:54.179Z,494.00
2023-12-19T05:29:54.173Z,493.00
2023-12-19T05:30:54.266Z,492.00
2023-12-19T05:31:54.196Z,490.00
2023-12-19T05:32:54.221Z,492.00
2023-12-19T05:33:54.243Z,492.00
2023-12-19T05:34:54.270Z,490.00
2023-12-19T05:35:54.147Z,494.00
2023-12-19T05:36:54.207Z,494.00
2023-12-19T05:37:54.138Z,496.00
2023-12-19T05:38:54.138Z,494.00
2023-12-19T05:39:54.163Z,494.00
2023-12-19T05:40:54.134Z,495.00
2023-12-19T05:41:54.149Z,497.00
2023-12-19T05:42:54.208Z,496.00
2023-12-19T05:43:54.128Z,496.00
2023-12-19T05:44:54.154Z,498.00
2023-12-19T05:45:54.233Z,495.00
2023-12-19T05:46:54.193Z,496.00
2023-12-19T05:47:54.378Z,495.00
2023-12-19T05:48:54.214Z,496.00
2023-12-19T05:49:54.231Z,496.00
2023-12-19T05:50:54.202Z,497.00
2023-12-19T05:51:54.265Z,498.00
2023-12-19T05:52:54.182Z,497.00
2023-12-19T05:53:54.177Z,496.00
2023-12-19T05:54:54.244Z,496.00
2023-12-19T05:55:54.195Z,497.00
2023-12-19T05:56:54.208Z,498.00
2023-12-19T05:57:54.245Z,499.00
2023-12-19T05:58:54.188Z,497.00
2023-12-19T05:59:54.184Z,498.00
2023-12-19T06:00:54.261Z,494.00
2023-12-19T06:01:54.301Z,493.00
2023-12-19T06:02:54.181Z,492.00
2023-12-19T06:03:54.317Z,495.00
2023-12-19T06:04:54.166Z,496.00
2023-12-19T06:05:54.230Z,495.00
2023-12-19T06:06:54.220Z,496.00
2023-12-19T06:07:54.186Z,496.00
2023-12-19T06:08:54.187Z,498.00
2023-12-19T06:09:54.232Z,501.00
2023-12-19T06:10:56.136Z,500.00
2023-12-19T06:11:54.182Z,500.00
2023-12-19T06:12:54.243Z,502.00
2023-12-19T06:13:54.211Z,500.00
2023-12-19T06:14:54.182Z,498.00
2023-12-19T06:15:54.246Z,500.00
2023-12-19T06:16:54.171Z,502.00
2023-12-19T06:17:54.224Z,504.00
2023-12-19T06:18:54.278Z,506.00
2023-12-19T06:19:54.312Z,505.00
2023-12-19T06:20:54.169Z,504.00
2023-12-19T06:21:54.225Z,503.00
2023-12-19T06:22:54.168Z,503.00
2023-12-19T06:23:54.172Z,504.00
2023-12-19T06:24:54.205Z,503.00
2023-12-19T06:25:54.168Z,502.00
2023-12-19T06:26:54.155Z,502.00
2023-12-19T06:27:54.202Z,502.00
2023-12-19T06:28:54.135Z,502.00
2023-12-19T06:29:54.513Z,503.00
2023-12-19T06:30:54.184Z,503.00
2023-12-19T06:31:54.164Z,503.00
2023-12-19T06:32:54.167Z,503.00
2023-12-19T06:33:54.194Z,503.00
2023-12-19T06:34:54.264Z,506.00
2023-12-19T06:35:54.154Z,581.00
2023-12-19T06:36:54.161Z,584.00
2023-12-19T06:37:54.183Z,607.00
2023-12-19T06:38:54.139Z,659.00
2023-12-19T06:39:54.138Z,676.00
2023-12-19T06:40:54.107Z,716.00
2023-12-19T06:41:54.107Z,743.00
2023-12-19T06:42:54.125Z,848.00
2023-12-19T06:43:54.105Z,847.00
2023-12-19T06:44:54.089Z,862.00
2023-12-19T06:45:54.172Z,879.00
2023-12-19T06:46:54.134Z,904.00
2023-12-19T06:47:54.137Z,920.00
2023-12-19T06:48:54.104Z,955.00
2023-12-19T06:49:54.154Z,1008.00
2023-12-19T06:50:54.060Z,1024.00
2023-12-19T06:51:54.137Z,1063.00
2023-12-19T06:52:54.054Z,1096.00
2023-12-19T06:53:54.065Z,1115.00
2023-12-19T06:54:54.052Z,1136.00
2023-12-19T06:55:54.043Z,1163.00
2023-12-19T06:56:54.014Z,1184.00
2023-12-19T06:57:54.020Z,1189.00
2023-12-19T06:58:53.992Z,1231.00
2023-12-19T06:59:53.954Z,1274.00
2023-12-19T07:00:54.050Z,1318.00
2023-12-19T07:01:53.946Z,1397.00
2023-12-19T07:02:53.936Z,1407.00
2023-12-19T07:03:54.045Z,1428.00
2023-12-19T07:04:53.893Z,1486.00
2023-12-19T07:05:53.917Z,1548.00
2023-12-19T07:06:53.871Z,1586.00
2023-12-19T07:07:53.843Z,1607.00
2023-12-19T07:08:53.813Z,1634.00
2023-12-19T07:09:53.849Z,1657.00
2023-12-19T07:10:53.849Z,1664.00
2023-12-19T07:11:53.834Z,1256.00
2023-12-19T07:12:53.866Z,1174.00
2023-12-19T07:13:53.832Z,1121.00
2023-12-19T07:14:53.794Z,1063.00
2023-12-19T07:15:53.800Z,997.00
2023-12-19T07:16:53.775Z,924.00
2023-12-19T07:17:53.887Z,912.00
2023-12-19T07:18:53.793Z,1010.00
2023-12-19T07:19:53.983Z,1021.00
2023-12-19T07:20:53.790Z,1044.00
2023-12-19T07:21:53.765Z,1071.00
2023-12-19T07:22:53.734Z,1101.00
2023-12-19T07:23:53.729Z,1138.00
2023-12-19T07:24:53.719Z,1174.00
2023-12-19T07:25:53.687Z,1206.00
2023-12-19T07:26:53.691Z,1216.00
2023-12-19T07:27:53.718Z,1225.00
2023-12-19T07:28:53.679Z,1248.00
2023-12-19T07:29:53.665Z,1267.00
2023-12-19T07:30:53.724Z,1321.00
2023-12-19T07:31:53.806Z,1335.00
2023-12-19T07:32:53.631Z,1348.00
2023-12-19T07:33:53.709Z,1365.00
2023-12-19T07:34:53.660Z,1388.00
2023-12-19T07:35:53.547Z,1441.00
2023-12-19T07:36:53.581Z,1444.00
2023-12-19T07:37:53.534Z,1449.00
2023-12-19T07:38:53.538Z,1467.00
2023-12-19T07:39:53.563Z,1477.00
2023-12-19T07:40:53.479Z,1492.00
2023-12-19T07:41:53.532Z,1519.00
2023-12-19T07:42:53.537Z,1541.00
2023-12-19T07:43:53.584Z,1564.00
2023-12-19T07:44:53.611Z,1631.00
2023-12-19T07:45:53.679Z,1639.00
2023-12-19T07:46:53.733Z,1637.00
2023-12-19T07:47:53.849Z,1639.00
2023-12-19T07:48:53.822Z,1638.00
2023-12-19T07:49:54.109Z,1637.00
2023-12-19T07:50:53.789Z,1634.00
2023-12-19T07:51:53.834Z,1628.00
2023-12-19T07:52:53.794Z,1618.00
2023-12-19T07:53:53.772Z,1605.00
2023-12-19T07:54:53.754Z,1583.00
2023-12-19T07:55:53.709Z,1566.00
2023-12-19T07:56:53.748Z,1550.00
2023-12-19T07:57:53.717Z,1541.00
2023-12-19T07:58:53.726Z,1530.00
2023-12-19T07:59:53.762Z,1518.00
2023-12-19T08:00:53.962Z,1503.00
2023-12-19T08:01:53.915Z,1461.00
2023-12-19T08:02:53.960Z,1437.00
2023-12-19T08:03:54.210Z,1418.00
2023-12-19T08:04:54.069Z,1409.00
2023-12-19T08:05:54.111Z,1399.00
2023-12-19T08:06:54.170Z,1390.00
2023-12-19T08:07:54.210Z,1376.00
2023-12-19T08:08:54.199Z,1320.00
2023-12-19T08:09:54.343Z,1317.00
2023-12-19T08:10:54.317Z,1310.00
2023-12-19T08:11:54.363Z,1300.00
2023-12-19T08:12:54.450Z,1290.00
2023-12-19T08:13:54.473Z,1283.00
2023-12-19T08:14:54.513Z,1276.00
2023-12-19T08:15:54.575Z,1271.00
2023-12-19T08:16:54.629Z,1264.00
2023-12-19T08:17:54.772Z,1251.00
2023-12-19T08:18:54.797Z,1242.00
2023-12-19T08:19:54.648Z,1235.00
2023-12-19T08:20:54.577Z,1219.00
2023-12-19T08:21:54.620Z,1208.00
2023-12-19T08:22:54.562Z,1201.00
2023-12-19T08:23:54.547Z,1199.00
2023-12-19T08:24:54.564Z,1194.00
2023-12-19T08:25:54.522Z,1190.00
2023-12-19T08:26:54.516Z,1182.00
2023-12-19T08:27:54.633Z,1178.00
2023-12-19T08:28:54.472Z,1178.00
2023-12-19T08:29:54.479Z,1171.00
2023-12-19T08:30:54.588Z,1161.00
2023-12-19T08:31:54.594Z,1165.00
2023-12-19T08:32:54.705Z,1166.00
2023-12-19T08:33:54.755Z,1169.00
2023-12-19T08:34:54.934Z,1169.00
2023-12-19T08:35:54.833Z,1169.00
2023-12-19T08:36:54.938Z,1162.00
2023-12-19T08:37:54.957Z,1149.00
2023-12-19T08:38:55.006Z,1147.00
2023-12-19T08:39:55.128Z,1152.00
2023-12-19T08:40:55.132Z,1172.00
2023-12-19T08:41:55.162Z,1172.00
2023-12-19T08:42:55.349Z,1173.00
2023-12-19T08:43:55.270Z,1197.00
2023-12-19T08:44:55.306Z,1211.00
2023-12-19T08:45:55.438Z,1238.00
2023-12-19T08:46:55.462Z,1291.00
2023-12-19T08:47:55.689Z,1321.00
2023-12-19T08:48:55.682Z,1337.00
2023-12-19T08:49:55.553Z,1350.00
2023-12-19T08:50:55.630Z,1362.00
2023-12-19T08:51:55.810Z,1362.00
2023-12-19T08:52:55.795Z,1365.00
2023-12-19T08:53:55.712Z,1370.00
2023-12-19T08:54:55.778Z,1376.00
2023-12-19T08:55:55.825Z,1185.00
2023-12-19T08:56:55.861Z,949.00
2023-12-19T08:57:55.933Z,979.00
2023-12-19T08:58:55.888Z,862.00
2023-12-19T08:59:55.910Z,829.00
2023-12-19T09:00:55.967Z,820.00
2023-12-19T09:01:55.994Z,751.00
2023-12-19T09:02:55.981Z,756.00
2023-12-19T09:03:56.041Z,749.00
2023-12-19T09:04:56.340Z,732.00
2023-12-19T09:05:56.013Z,726.00
2023-12-19T09:06:56.015Z,707.00
2023-12-19T09:07:55.991Z,694.00
2023-12-19T09:08:55.981Z,692.00
2023-12-19T09:09:56.023Z,674.00
2023-12-19T09:10:56.001Z,669.00
2023-12-19T09:11:56.016Z,663.00
2023-12-19T09:12:56.048Z,654.00
2023-12-19T09:13:56.015Z,650.00
2023-12-19T09:14:56.036Z,646.00
2023-12-19T09:15:56.043Z,648.00
2023-12-19T09:16:56.027Z,652.00
2023-12-19T09:17:56.081Z,649.00
2023-12-19T09:18:56.160Z,641.00
2023-12-19T09:19:56.209Z,644.00
2023-12-19T09:20:56.041Z,646.00
2023-12-19T09:21:56.152Z,667.00
2023-12-19T09:22:56.153Z,734.00
2023-12-19T09:23:56.079Z,764.00
2023-12-19T09:24:56.124Z,765.00
2023-12-19T09:25:56.093Z,771.00
2023-12-19T09:26:56.071Z,773.00
2023-12-19T09:27:56.105Z,786.00
2023-12-19T09:28:56.063Z,803.00
2023-12-19T09:29:56.046Z,838.00
2023-12-19T09:30:56.128Z,857.00
2023-12-19T09:31:56.080Z,860.00
2023-12-19T09:32:56.085Z,862.00
2023-12-19T09:33:56.073Z,868.00
2023-12-19T09:34:56.146Z,894.00
2023-12-19T09:35:56.021Z,917.00
2023-12-19T09:36:57.508Z,926.00
2023-12-19T09:37:56.007Z,926.00
2023-12-19T09:38:56.002Z,928.00
2023-12-19T09:39:58.290Z,927.00
2023-12-19T09:40:56.072Z,924.00
2023-12-19T09:41:56.070Z,926.00
2023-12-19T09:42:56.099Z,926.00
2023-12-19T09:43:56.052Z,920.00
2023-12-19T09:44:56.067Z,916.00
2023-12-19T09:45:56.034Z,915.00
2023-12-19T09:46:56.007Z,909.00
2023-12-19T09:47:56.021Z,910.00
2023-12-19T09:48:56.083Z,924.00
2023-12-19T09:49:55.995Z,946.00
2023-12-19T09:50:56.060Z,960.00
2023-12-19T09:51:56.042Z,970.00
2023-12-19T09:52:55.946Z,981.00
2023-12-19T09:53:55.919Z,994.00
2023-12-19T09:54:56.024Z,1026.00
2023-12-19T09:55:55.936Z,1043.00
2023-12-19T09:56:55.868Z,1053.00
2023-12-19T09:57:55.973Z,1066.00
2023-12-19T09:58:56.008Z,1087.00
2023-12-19T09:59:57.449Z,1096.00
2023-12-19T10:00:55.981Z,1148.00
2023-12-19T10:01:55.998Z,1168.00
2023-12-19T10:02:56.037Z,1174.00
2023-12-19T10:03:56.120Z,1182.00
2023-12-19T10:04:56.169Z,1185.00
2023-12-19T10:05:56.207Z,1190.00
2023-12-19T10:06:56.254Z,1194.00
2023-12-19T10:07:56.240Z,1201.00
2023-12-19T10:08:56.256Z,1229.00
2023-12-19T10:10:56.396Z,1274.00
2023-12-19T10:11:56.353Z,1290.00
2023-12-19T10:12:57.932Z,1300.00
2023-12-19T10:13:56.417Z,1305.00
2023-12-19T10:14:56.442Z,1318.00
2023-12-19T10:16:28.732Z,1324.00
2023-12-19T10:16:57.561Z,1337.00
2023-12-19T10:17:56.498Z,1341.00
2023-12-19T10:18:56.529Z,1344.00
2023-12-19T10:19:56.445Z,1350.00
2023-12-19T10:20:56.406Z,1361.00
2023-12-19T10:21:56.395Z,1370.00
2023-12-19T10:22:56.369Z,1386.00
2023-12-19T10:23:56.332Z,1393.00
2023-12-19T10:24:56.357Z,1401.00
2023-12-19T10:25:56.304Z,1404.00
2023-12-19T10:26:56.289Z,1404.00
2023-12-19T10:27:56.291Z,1403.00
2023-12-19T10:28:56.231Z,1415.00
2023-12-19T10:29:56.238Z,1433.00
2023-12-19T10:30:56.257Z,1446.00
2023-12-19T10:31:56.183Z,1461.00
2023-12-19T10:32:56.214Z,1482.00
2023-12-19T10:33:56.189Z,1496.00
2023-12-19T10:34:56.224Z,1517.00
2023-12-19T10:35:56.077Z,1529.00
2023-12-19T10:36:56.071Z,1537.00
2023-12-19T10:37:56.053Z,1535.00
2023-12-19T10:38:56.029Z,1533.00
2023-12-19T10:39:56.027Z,1534.00
2023-12-19T10:40:55.971Z,1550.00
2023-12-19T10:41:55.970Z,1560.00
2023-12-19T10:42:56.090Z,1580.00
2023-12-19T10:43:55.920Z,1581.00
2023-12-19T10:44:55.896Z,1573.00
2023-12-19T10:45:55.891Z,1568.00
2023-12-19T10:46:55.856Z,1563.00
2023-12-19T10:47:55.845Z,1559.00
2023-12-19T10:48:55.918Z,1557.00
2023-12-19T10:49:56.064Z,1559.00
2023-12-19T10:50:55.836Z,1550.00
2023-12-19T10:51:55.832Z,1544.00
2023-12-19T10:52:55.758Z,1520.00
2023-12-19T10:53:55.676Z,1489.00
2023-12-19T10:54:55.732Z,1484.00
2023-12-19T10:55:55.646Z,1441.00
2023-12-19T10:56:55.706Z,1420.00
2023-12-19T10:57:55.657Z,1401.00
2023-12-19T10:58:55.631Z,1314.00
2023-12-19T10:59:55.613Z,1267.00
2023-12-19T11:00:55.739Z,1263.00
2023-12-19T11:01:55.562Z,1255.00
2023-12-19T11:02:55.556Z,1206.00
2023-12-19T11:03:55.569Z,1208.00
2023-12-19T11:04:55.585Z,1176.00
2023-12-19T11:05:55.498Z,1145.00
2023-12-19T11:06:55.455Z,1191.00
2023-12-19T11:07:58.437Z,1188.00
2023-12-19T11:08:55.385Z,1187.00
2023-12-19T11:09:55.398Z,1173.00
2023-12-19T11:10:55.343Z,1123.00
2023-12-19T11:11:55.320Z,1123.00
2023-12-19T11:12:55.356Z,1132.00
2023-12-19T11:13:55.301Z,1139.00
2023-12-19T11:14:55.267Z,1127.00
2023-12-19T11:15:55.301Z,1121.00
2023-12-19T11:16:55.236Z,1126.00
2023-12-19T11:17:55.644Z,1121.00
2023-12-19T11:18:55.413Z,1103.00
2023-12-19T11:19:55.373Z,1087.00
2023-12-19T11:20:55.261Z,1103.00
2023-12-19T11:21:55.200Z,1113.00
2023-12-19T11:22:55.197Z,1110.00
2023-12-19T11:23:55.153Z,1108.00
2023-12-19T11:24:55.163Z,1103.00
2023-12-19T11:25:55.095Z,1088.00
2023-12-19T11:26:55.107Z,1072.00
2023-12-19T11:27:55.135Z,1065.00
2023-12-19T11:28:55.077Z,1064.00
2023-12-19T11:29:55.231Z,1064.00
2023-12-19T11:30:55.146Z,1068.00
2023-12-19T11:31:55.056Z,1073.00
2023-12-19T11:32:55.026Z,1078.00
2023-12-19T11:33:55.045Z,1078.00
2023-12-19T11:34:54.986Z,1076.00
2023-12-19T11:35:54.934Z,1079.00
2023-12-19T11:36:54.927Z,1076.00
2023-12-19T11:37:54.907Z,1093.00
2023-12-19T11:38:54.909Z,1086.00
2023-12-19T11:39:54.915Z,1095.00
2023-12-19T11:40:54.878Z,1108.00
2023-12-19T11:41:54.871Z,1114.00
2023-12-19T11:42:54.865Z,1115.00
2023-12-19T11:43:54.811Z,1118.00
2023-12-19T11:44:54.782Z,1123.00
2023-12-19T11:45:54.827Z,1123.00
2023-12-19T11:46:54.745Z,1127.00
2023-12-19T11:47:54.737Z,1134.00
2023-12-19T11:48:54.751Z,1142.00
2023-12-19T11:49:54.906Z,1149.00
2023-12-19T11:50:54.657Z,1162.00
2023-12-19T11:51:54.662Z,1173.00
2023-12-19T11:52:54.651Z,1185.00
2023-12-19T11:53:54.589Z,1194.00
2023-12-19T11:54:56.561Z,1200.00
2023-12-19T11:55:54.551Z,1208.00
2023-12-19T11:56:54.523Z,1216.00
2023-12-19T11:58:01.009Z,1246.00
2023-12-19T11:58:55.540Z,1252.00
2023-12-19T11:59:54.464Z,1254.00
2023-12-19T12:00:54.524Z,1253.00
2023-12-19T12:01:54.536Z,1254.00
2023-12-19T12:02:54.427Z,1255.00
2023-12-19T12:03:54.433Z,1251.00
2023-12-19T12:04:54.394Z,1081.00
2023-12-19T12:05:54.407Z,1103.00
2023-12-19T12:06:54.319Z,1076.00
2023-12-19T12:07:54.286Z,1059.00
2023-12-19T12:08:54.302Z,999.00
2023-12-19T12:09:54.267Z,998.00
2023-12-19T12:10:54.250Z,973.00
2023-12-19T12:11:54.248Z,910.00
2023-12-19T12:12:54.310Z,815.00
2023-12-19T12:13:54.182Z,795.00
2023-12-19T12:14:54.179Z,785.00
2023-12-19T12:15:54.211Z,774.00
2023-12-19T12:16:54.168Z,754.00
2023-12-19T12:17:54.159Z,745.00
2023-12-19T12:18:54.215Z,730.00
2023-12-19T12:19:54.322Z,724.00
2023-12-19T12:20:54.125Z,716.00
2023-12-19T12:21:54.149Z,717.00